Time;durP1;ratioP1;P1;durP2;ratioP2;P2;SDS_P1;SDS_P2;PMS_P1;PMS_P2;Temp;Humidity;BMP_temperature;BMP_pressure;BME280_temperature;BME280_humidity;BME280_pressure;Samples;Min_cycle;Max_cycle;Signal;HPM_P1;HPM_P2
2021/09/10 04:12:43;;;;;;;9.48;8.45;;;16.50;1.00;;;;;;4751149;30;20039;-83
2021/09/10 04:25:51;;;;;;;9.68;8.10;;;16.80;1.00;;;;;;4755936;30;20081;-80
2021/09/10 04:29:29;;;;;;;9.95;8.93;;;16.80;1.00;;;;;;4739590;30;20047;-80
2021/09/10 04:33:01;;;;;;;11.32;8.85;;;16.80;1.00;;;;;;4754339;30;20075;-80
2021/09/10 04:35:27;;;;;;;9.02;7.60;;;16.80;1.00;;;;;;4685884;30;20649;-79
2021/09/10 04:38:12;;;;;;;11.30;8.45;;;16.80;1.00;;;;;;4700415;30;20144;-82
2021/09/10 05:58:28;;;;;;;14.40;10.60;;;17.10;1.00;;;;;;4595502;31;20054;-79
2021/09/10 06:24:34;;;;;;;12.05;10.15;;;17.60;1.00;;;;;;4597892;31;20571;-80
2021/09/10 06:27:29;;;;;;;12.02;9.98;;;17.60;1.00;;;;;;4597771;31;20119;-81
2021/09/10 06:33:21;;;;;;;10.57;9.50;;;17.50;1.00;;;;;;4647471;30;20133;-84
2021/09/10 06:36:29;;;;;;;11.65;10.55;;;17.40;1.00;;;;;;4634045;30;20047;-81
2021/09/10 06:38:55;;;;;;;14.55;10.90;;;17.50;1.00;;;;;;4700632;30;20141;-79
2021/09/10 06:41:21;;;;;;;11.75;10.20;;;17.40;1.00;;;;;;4714946;30;20103;-79
2021/09/10 06:43:47;;;;;;;15.43;10.30;;;17.40;1.00;;;;;;4715871;30;20129;-80
2021/09/10 06:46:15;;;;;;;13.93;10.57;;;17.40;1.00;;;;;;4717636;30;20103;-80
2021/09/10 06:48:41;;;;;;;13.70;10.57;;;17.50;1.00;;;;;;4716681;30;20047;-80
2021/09/10 06:51:07;;;;;;;12.48;11.18;;;17.50;1.00;;;;;;4702447;30;20127;-79
2021/09/10 06:53:34;;;;;;;12.30;10.05;;;17.50;1.00;;;;;;4718176;30;20409;-79
2021/09/10 06:56:00;;;;;;;13.00;9.48;;;17.40;1.00;;;;;;4717084;30;20076;-80
2021/09/10 06:58:26;;;;;;;12.32;10.90;;;17.50;1.00;;;;;;4716628;30;20045;-80
2021/09/10 07:00:52;;;;;;;11.95;8.98;;;17.60;1.00;;;;;;4702712;30;20041;-79
2021/09/10 07:03:20;;;;;;;13.38;9.68;;;17.60;1.00;;;;;;4718538;30;20094;-79
2021/09/10 07:05:51;;;;;;;10.32;8.95;;;17.60;1.00;;;;;;4717035;30;20073;-80
2021/09/10 07:08:17;;;;;;;9.93;8.95;;;17.60;1.00;;;;;;4718784;30;20045;-80
2021/09/10 07:10:43;;;;;;;11.23;9.52;;;17.70;1.00;;;;;;4702518;30;20033;-80
2021/09/10 07:13:09;;;;;;;10.43;9.40;;;17.70;1.00;;;;;;4721993;30;20037;-80
2021/09/10 07:15:37;;;;;;;11.07;9.02;;;17.80;1.00;;;;;;4705867;30;20041;-80
2021/09/10 07:18:03;;;;;;;16.67;10.00;;;17.90;1.00;;;;;;4705854;30;20056;-80
2021/09/10 07:20:29;;;;;;;14.18;9.23;;;18.20;1.00;;;;;;4722124;30;20045;-80
2021/09/10 07:22:58;;;;;;;10.60;9.18;;;18.40;1.00;;;;;;4721525;30;20562;-79
2021/09/10 07:25:24;;;;;;;12.85;10.48;;;18.70;1.00;;;;;;4720343;30;20067;-80
2021/09/10 07:27:50;;;;;;;10.00;8.95;;;18.90;1.00;;;;;;4722499;30;20495;-80
2021/09/10 07:30:19;;;;;;;9.38;7.60;;;19.10;1.00;;;;;;4722995;30;20051;-80
2021/09/10 07:32:45;;;;;;;9.95;7.60;;;19.20;1.00;;;;;;4723662;30;20048;-80
2021/09/10 07:35:11;;;;;;;12.20;8.57;;;19.10;1.00;;;;;;4737916;30;20048;-80
2021/09/10 07:37:37;;;;;;;9.98;7.90;;;19.30;1.00;;;;;;4739435;30;20040;-79
2021/09/10 07:40:05;;;;;;;9.63;8.27;;;19.30;1.00;;;;;;4737759;30;20064;-80
2021/09/10 07:42:31;;;;;;;8.77;7.97;;;19.30;1.00;;;;;;4738081;30;20072;-80
2021/09/10 07:45:00;;;;;;;11.88;8.32;;;19.30;1.00;;;;;;4723032;30;20040;-80
2021/09/10 07:47:25;;;;;;;8.80;7.22;;;19.30;1.00;;;;;;4739037;30;20052;-80
2021/09/10 07:49:51;;;;;;;7.90;6.95;;;19.60;1.00;;;;;;4738914;30;20519;-80
2021/09/10 07:52:17;;;;;;;7.93;7.13;;;19.80;1.00;;;;;;4737651;30;20497;-80
2021/09/10 07:54:43;;;;;;;8.65;7.18;;;19.80;1.00;;;;;;4723291;30;20048;-80
2021/09/10 07:57:11;;;;;;;10.82;7.45;;;19.80;1.00;;;;;;4739008;30;20040;-80
2021/09/10 07:59:39;;;;;;;8.20;7.40;;;19.70;1.00;;;;;;4737456;30;20052;-80
2021/09/10 08:02:07;;;;;;;9.18;7.13;;;19.50;1.00;;;;;;4737277;30;20102;-80
2021/09/10 08:04:33;;;;;;;10.73;7.40;;;19.40;1.00;;;;;;4737763;30;20044;-80
2021/09/10 08:06:59;;;;;;;10.65;8.00;;;19.20;1.00;;;;;;4723194;30;20100;-80
2021/09/10 08:09:24;;;;;;;11.27;8.93;;;19.10;1.00;;;;;;4722780;30;20494;-79
2021/09/10 08:11:51;;;;;;;8.63;7.57;;;19.10;1.00;;;;;;4722781;30;20041;-80
2021/09/10 08:14:17;;;;;;;12.63;7.65;;;19.30;1.00;;;;;;4738616;30;20048;-80
2021/09/10 08:16:45;;;;;;;9.43;7.57;;;19.30;1.00;;;;;;4722297;30;20064;-80
2021/09/10 08:19:11;;;;;;;11.27;7.53;;;19.80;1.00;;;;;;4737058;30;20049;-80
2021/09/10 08:21:40;;;;;;;9.43;7.15;;;20.20;1.00;;;;;;4738663;30;20041;-79
2021/09/10 08:24:12;;;;;;;7.80;7.05;;;20.60;1.00;;;;;;4736798;30;20069;-80
2021/09/10 08:26:40;;;;;;;10.93;6.93;;;20.80;1.00;;;;;;4738459;30;20566;-80
2021/09/10 08:29:10;;;;;;;8.48;6.78;;;20.80;1.00;;;;;;4738104;30;20061;-79
2021/09/10 08:31:36;;;;;;;7.72;6.55;;;20.80;1.00;;;;;;4738252;30;20048;-80
2021/09/10 08:34:05;;;;;;;9.55;7.15;;;20.90;1.00;;;;;;4722110;30;20041;-79
2021/09/10 08:36:34;;;;;;;9.32;6.50;;;21.10;1.00;;;;;;4737821;30;20039;-80
2021/09/10 08:39:08;;;;;;;9.20;7.28;;;21.00;1.00;;;;;;4738012;30;20051;-80
2021/09/10 08:41:35;;;;;;;9.60;7.15;;;21.00;1.00;;;;;;4738026;30;20040;-79
2021/09/10 08:44:09;;;;;;;9.88;7.38;;;21.00;1.00;;;;;;4721960;30;20072;-80
2021/09/10 08:46:40;;;;;;;8.30;6.78;;;20.90;1.00;;;;;;4737653;30;20609;-80
2021/09/10 08:49:10;;;;;;;7.50;6.65;;;20.70;1.00;;;;;;4738286;30;20118;-79
2021/09/10 08:51:36;;;;;;;7.38;6.57;;;20.70;1.00;;;;;;4737789;30;20048;-79
2021/09/10 08:54:02;;;;;;;10.38;6.75;;;20.70;1.00;;;;;;4736544;30;20542;-80
2021/09/10 08:56:34;;;;;;;10.60;7.35;;;20.70;1.00;;;;;;4736140;30;20076;-79
2021/09/10 08:59:21;;;;;;;9.50;6.85;;;20.70;1.00;;;;;;4735992;30;20083;-80
2021/09/10 09:01:53;;;;;;;6.95;6.32;;;20.80;1.00;;;;;;4735847;30;20520;-80
2021/09/10 09:04:21;;;;;;;9.57;7.53;;;20.90;1.00;;;;;;4737420;30;20509;-80
2021/09/10 09:07:00;;;;;;;10.02;7.38;;;21.20;1.00;;;;;;4721554;30;20051;-79
2021/09/10 09:09:48;;;;;;;9.63;6.72;;;21.30;1.00;;;;;;4737591;30;20164;-79
2021/09/10 09:12:24;;;;;;;8.82;6.80;;;21.40;1.00;;;;;;4721476;30;20501;-80
2021/09/10 09:15:06;;;;;;;9.48;6.80;;;21.60;1.00;;;;;;4721520;30;20135;-80
2021/09/10 09:17:51;;;;;;;11.73;6.60;;;21.90;1.00;;;;;;4737549;30;20079;-80
2021/09/10 09:20:23;;;;;;;9.70;7.07;;;21.80;1.00;;;;;;4735612;30;20044;-80
2021/09/10 09:23:14;;;;;;;8.95;5.93;;;22.20;1.00;;;;;;4737087;30;20044;-80
2021/09/10 09:25:50;;;;;;;9.48;6.20;;;22.30;1.00;;;;;;4750512;30;20037;-79
2021/09/10 09:28:44;;;;;;;7.93;6.10;;;22.50;1.00;;;;;;4735930;30;20143;-80
2021/09/10 09:31:25;;;;;;;9.63;6.72;;;22.70;1.00;;;;;;4737524;30;20121;-80
2021/09/10 09:33:51;;;;;;;9.05;6.07;;;22.90;1.00;;;;;;4737612;30;20049;-80
2021/09/10 09:36:29;;;;;;;8.05;6.40;;;23.00;1.00;;;;;;4720481;30;20071;-80
2021/09/10 09:38:58;;;;;;;9.02;5.50;;;22.90;1.00;;;;;;4735843;30;20083;-79
2021/09/10 09:41:29;;;;;;;6.10;5.50;;;22.70;1.00;;;;;;4736923;30;20123;-80
2021/09/10 09:44:15;;;;;;;7.15;5.15;;;22.30;1.00;;;;;;4722009;30;20059;-80
2021/09/10 09:46:59;;;;;;;5.80;5.30;;;22.30;1.00;;;;;;4736970;30;20057;-79
2021/09/10 09:49:31;;;;;;;6.13;5.20;;;22.50;1.00;;;;;;4737478;30;20076;-80
2021/09/10 09:52:06;;;;;;;6.28;4.47;;;23.00;1.00;;;;;;4735608;30;20052;-80
2021/09/10 09:54:35;;;;;;;6.60;5.10;;;23.20;1.00;;;;;;4735850;30;20079;-80
2021/09/10 09:57:04;;;;;;;6.38;5.00;;;23.40;1.00;;;;;;4735266;30;20474;-80
2021/09/10 09:59:37;;;;;;;5.03;4.63;;;23.60;1.00;;;;;;4736662;30;20052;-80
2021/09/10 10:02:16;;;;;;;5.55;4.60;;;23.60;1.00;;;;;;4720842;30;20107;-80
2021/09/10 10:05:07;;;;;;;10.15;5.55;;;23.40;1.00;;;;;;4735265;30;20066;-79
2021/09/10 10:08:08;;;;;;;5.90;4.75;;;23.30;1.00;;;;;;4735498;30;20041;-80
2021/09/10 10:10:49;;;;;;;7.32;4.57;;;23.30;1.00;;;;;;4730009;30;20098;-79
2021/09/10 10:13:27;;;;;;;5.60;3.83;;;23.50;1.00;;;;;;4735156;30;20130;-80
2021/09/10 10:16:05;;;;;;;6.05;4.53;;;23.60;1.00;;;;;;4720321;30;20121;-80
2021/09/10 10:18:46;;;;;;;4.57;4.15;;;23.60;1.00;;;;;;4735464;30;20053;-80
2021/09/10 10:21:17;;;;;;;4.57;3.75;;;23.70;1.00;;;;;;4736706;30;20186;-80
2021/09/10 10:23:54;;;;;;;6.30;4.00;;;23.90;1.00;;;;;;4749909;30;20098;-79
2021/09/10 10:26:56;;;;;;;4.28;3.88;;;23.80;1.00;;;;;;4736591;30;20040;-79
2021/09/10 10:29:39;;;;;;;3.90;3.60;;;23.40;1.00;;;;;;4702034;30;20052;-80
2021/09/10 10:32:13;;;;;;;5.22;4.68;;;23.70;1.00;;;;;;4734380;30;20147;-80
2021/09/10 10:35:19;;;;;;;5.75;4.47;;;24.10;1.00;;;;;;4735906;30;20041;-80
2021/09/10 10:38:20;;;;;;;4.47;4.13;;;24.20;1.00;;;;;;4735023;30;20060;-80
2021/09/10 10:40:51;;;;;;;;;;;24.20;1.00;;;;;;4736603;30;20053;-80
2021/09/10 10:43:20;;;;;;;3.90;3.50;;;24.20;1.00;;;;;;4720195;30;20359;-80
2021/09/10 10:45:51;;;;;;;4.45;3.30;;;24.10;1.00;;;;;;4736053;30;20123;-80
2021/09/10 10:48:38;;;;;;;3.42;3.17;;;24.10;1.00;;;;;;4734690;30;20078;-80
2021/09/10 10:51:39;;;;;;;3.55;3.25;;;24.00;1.00;;;;;;4734676;30;20058;-79
2021/09/10 10:58:04;;;;;;;3.58;3.20;;;23.90;1.00;;;;;;4734903;30;20044;-80
2021/09/10 11:00:36;;;;;;;6.47;3.50;;;23.80;1.00;;;;;;4720056;30;20048;-80
2021/09/10 11:03:14;;;;;;;5.45;3.05;;;24.00;1.00;;;;;;4736439;30;20044;-79
2021/09/10 11:05:51;;;;;;;3.60;3.30;;;24.10;1.00;;;;;;4736518;30;20053;-80
2021/09/10 11:08:36;;;;;;;3.92;3.15;;;24.30;1.00;;;;;;4720718;30;20079;-80
2021/09/10 11:11:23;;;;;;;3.42;3.05;;;24.60;1.00;;;;;;4736417;30;20167;-80
2021/09/10 11:13:57;;;;;;;3.55;3.10;;;24.80;1.00;;;;;;4720264;30;20076;-80
2021/09/10 11:16:34;;;;;;;4.45;3.72;;;24.90;1.00;;;;;;4720190;30;20549;-79
2021/09/10 11:19:22;;;;;;;3.95;3.58;;;24.90;1.00;;;;;;4734370;30;20052;-79
2021/09/10 11:21:59;;;;;;;3.72;3.42;;;24.50;1.00;;;;;;4735906;30;20532;-80
2021/09/10 11:24:42;;;;;;;4.15;3.38;;;24.10;1.00;;;;;;4720356;30;20045;-79
2021/09/10 11:27:30;;;;;;;5.40;3.67;;;23.60;1.00;;;;;;4736114;30;20044;-80
2021/09/10 11:30:22;;;;;;;4.63;3.80;;;23.50;1.00;;;;;;4719674;30;20176;-80
2021/09/10 11:33:02;;;;;;;4.05;3.70;;;23.30;1.00;;;;;;4735546;30;20098;-80
2021/09/10 11:35:41;;;;;;;4.82;3.80;;;23.20;1.00;;;;;;4734423;30;20211;-80
2021/09/10 11:38:23;;;;;;;5.60;4.10;;;23.30;1.00;;;;;;4735651;30;20051;-80
2021/09/10 11:40:57;;;;;;;3.80;3.50;;;23.50;1.00;;;;;;4734136;30;20056;-80
2021/09/10 11:43:40;;;;;;;3.63;2.88;;;24.20;1.00;;;;;;4736306;30;20079;-80
2021/09/10 11:46:19;;;;;;;5.15;3.10;;;24.60;1.00;;;;;;4734741;30;20048;-80
2021/09/10 11:48:54;;;;;;;3.90;3.60;;;24.90;1.00;;;;;;4735335;30;20044;-79
2021/09/10 11:51:52;;;;;;;3.75;3.20;;;25.20;1.00;;;;;;4735916;30;20493;-80
2021/09/10 11:54:30;;;;;;;4.18;3.70;;;25.30;1.00;;;;;;4733956;30;20048;-80
2021/09/10 11:57:17;;;;;;;3.72;3.42;;;24.90;1.00;;;;;;4735338;30;20048;-80
2021/09/10 11:59:58;;;;;;;;;;;;;;;;;;;;;
2021/09/10 12:02:29;;;;;;;4.93;2.92;;;24.50;1.00;;;;;;4738160;30;20044;-80
2021/09/10 12:05:17;;;;;;;3.03;2.58;;;24.40;1.00;;;;;;4724224;30;20111;-80
2021/09/10 12:07:50;;;;;;;2.92;2.65;;;24.30;1.00;;;;;;4751650;30;20080;-79
2021/09/10 12:10:46;;;;;;;3.33;3.03;;;24.00;1.00;;;;;;4736902;30;20047;-80
2021/09/10 12:13:15;;;;;;;3.50;3.30;;;23.70;1.00;;;;;;4739189;30;20048;-79
2021/09/10 12:15:43;;;;;;;4.60;3.40;;;23.60;1.00;;;;;;4736786;30;20052;-78
2021/09/10 12:18:14;;;;;;;2.20;1.98;;;23.40;1.00;;;;;;4738032;30;20508;-79
2021/09/10 12:20:41;;;;;;;3.10;2.25;;;23.30;1.00;;;;;;4722040;30;20037;-79
2021/09/10 12:23:17;;;;;;;2.80;2.50;;;23.10;1.00;;;;;;4738450;30;20048;-80
2021/09/10 12:25:57;;;;;;;4.03;2.78;;;23.00;1.00;;;;;;4738254;30;20071;-79
2021/09/10 12:31:19;;;;;;;3.67;2.60;;;23.10;1.00;;;;;;4735667;30;20461;-79
2021/09/10 12:34:18;;;;;;;2.10;1.88;;;23.50;1.00;;;;;;4737161;30;20138;-80
2021/09/10 12:37:29;;;;;;;3.25;2.00;;;23.90;1.00;;;;;;4758235;30;20553;-80
2021/09/10 12:44:19;;;;;;;;;;;;;;;;;;;;;
2021/09/10 12:47:45;;;;;;;;;;;;;;;;;;;;;
2021/09/10 13:01:21;;;;;;;;;;;;;;;;;;;;;
2021/09/10 13:12:03;;;;;;;;;;;;;;;;;;;;;
2021/09/10 13:15:10;;;;;;;2.60;2.40;;;24.60;1.00;;;;;;4734776;30;20047;-80
2021/09/10 13:22:18;;;;;;;;;;;;;;;;;;;;;
2021/09/10 13:25:19;;;;;;;3.13;2.83;;;24.80;1.00;;;;;;4713649;30;20044;-81
2021/09/10 13:31:22;;;;;;;8.65;3.72;;;23.80;1.00;;;;;;4716978;30;20076;-80
2021/09/10 13:33:54;;;;;;;67.15;5.68;;;22.90;99.90;;;;;;4717807;30;20080;-89
2021/09/10 13:36:20;;;;;;;1.20;1.00;;;20.50;99.90;;;;;;4729132;30;20524;-77
2021/09/10 13:38:46;;;;;;;0.45;0.32;;;23.00;99.90;;;;;;4736675;30;20053;-77
2021/09/10 13:41:11;;;;;;;0.30;0.30;;;22.90;99.90;;;;;;4736858;30;20518;-77
2021/09/10 13:43:37;;;;;;;0.40;0.40;;;22.80;99.90;;;;;;4736810;30;20044;-78
2021/09/10 13:46:05;;;;;;;0.17;0.17;;;22.60;99.90;;;;;;4735372;30;20048;-77
2021/09/10 13:48:31;;;;;;;0.32;0.32;;;22.70;99.90;;;;;;4736079;30;20040;-77
2021/09/10 13:51:00;;;;;;;0.10;0.10;;;22.80;99.90;;;;;;4736841;30;20127;-77
2021/09/10 13:53:28;;;;;;;0.20;0.20;;;22.80;99.90;;;;;;4736456;30;20051;-77
2021/09/10 13:55:54;;;;;;;0.15;0.15;;;23.20;99.90;;;;;;4735805;30;20578;-77
2021/09/10 13:58:19;;;;;;;0.10;0.10;;;23.20;99.90;;;;;;4716619;30;20045;-77
2021/09/10 14:00:50;;;;;;;0.32;0.32;;;23.30;99.90;;;;;;4735586;30;20045;-77
2021/09/10 14:03:15;;;;;;;0.10;0.10;;;23.00;99.90;;;;;;4734067;30;20102;-77
2021/09/10 14:05:43;;;;;;;0.20;0.20;;;22.70;99.90;;;;;;4711988;30;20048;-77
2021/09/10 14:08:20;;;;;;;0.43;0.43;;;22.50;99.90;;;;;;4718065;30;20045;-77
2021/09/10 14:10:46;;;;;;;0.32;0.32;;;22.50;99.90;;;;;;4714534;30;20051;-77
2021/09/10 14:13:12;;;;;;;0.40;0.40;;;22.70;99.90;;;;;;4735181;30;20048;-77
2021/09/10 14:15:38;;;;;;;0.50;0.50;;;22.80;99.90;;;;;;4736066;30;20490;-75
2021/09/10 14:18:04;;;;;;;0.10;0.10;;;23.10;99.90;;;;;;4734462;30;20041;-77
2021/09/10 14:20:29;;;;;;;0.40;0.40;;;23.40;99.90;;;;;;4735837;30;20064;-77
2021/09/10 14:22:55;;;;;;;0.20;0.20;;;23.20;99.90;;;;;;4736010;30;20044;-77
2021/09/10 14:25:21;;;;;;;0.47;0.47;;;23.20;99.90;;;;;;4734850;30;20045;-77
2021/09/10 14:27:47;;;;;;;0.20;0.20;;;23.40;99.90;;;;;;4720070;30;20098;-77
2021/09/10 14:30:14;;;;;;;0.10;0.10;;;23.80;99.90;;;;;;4733099;30;20056;-77
2021/09/10 14:32:40;;;;;;;0.10;0.10;;;23.70;99.90;;;;;;4753902;30;20486;-77
2021/09/10 14:35:09;;;;;;;0.17;0.15;;;23.80;99.90;;;;;;4753846;30;20147;-77
2021/09/10 14:37:35;;;;;;;0.30;0.30;;;23.70;99.90;;;;;;4754056;30;20052;-77
2021/09/10 14:40:02;;;;;;;0.20;0.20;;;23.70;99.90;;;;;;4767358;30;20071;-77
2021/09/10 14:42:28;;;;;;;0.10;0.10;;;23.60;99.90;;;;;;4753904;30;20133;-77
2021/09/10 14:44:53;;;;;;;0.30;0.30;;;23.70;99.90;;;;;;4767278;30;20493;-77
2021/09/10 14:47:19;;;;;;;0.30;0.30;;;23.50;99.90;;;;;;4753943;30;20078;-77
2021/09/10 14:49:45;;;;;;;0.20;0.20;;;23.70;99.90;;;;;;4754035;30;20143;-77
2021/09/10 14:52:11;;;;;;;0.10;0.10;;;23.70;99.90;;;;;;4753703;30;20047;-77
2021/09/10 14:54:36;;;;;;;0.13;0.13;;;23.90;99.90;;;;;;4753958;30;20052;-77
2021/09/10 14:57:02;;;;;;;0.20;0.20;;;23.90;99.90;;;;;;4753762;30;20056;-77
2021/09/10 15:01:54;;;;;;;0.20;0.20;;;23.90;99.90;;;;;;4753726;30;20471;-77
2021/09/10 15:04:20;;;;;;;0.15;0.15;;;23.90;99.90;;;;;;4752442;30;20094;-77
2021/09/10 15:06:46;;;;;;;0.10;0.10;;;24.10;99.90;;;;;;4753756;30;20040;-77
2021/09/10 15:09:12;;;;;;;0.10;0.10;;;24.20;99.90;;;;;;4753869;30;20096;-76
2021/09/10 15:11:38;;;;;;;0.32;0.20;;;24.40;99.90;;;;;;4752315;30;20040;-77
2021/09/10 15:14:04;;;;;;;0.10;0.10;;;24.60;99.90;;;;;;4752354;30;20048;-77
2021/09/10 15:16:31;;;;;;;0.10;0.10;;;24.50;99.90;;;;;;4753405;30;20052;-77
2021/09/10 15:18:57;;;;;;;0.10;0.10;;;24.60;99.90;;;;;;4753639;30;20052;-77
2021/09/10 15:21:23;;;;;;;0.10;0.10;;;24.60;99.90;;;;;;4752861;30;20036;-77
2021/09/10 15:23:49;;;;;;;0.10;0.10;;;24.40;99.90;;;;;;4753489;30;20058;-77
2021/09/10 15:26:15;;;;;;;0.17;0.17;;;24.40;99.90;;;;;;4753939;30;20047;-77
2021/09/10 15:28:43;;;;;;;0.20;0.20;;;24.40;99.90;;;;;;4753492;30;20064;-76
2021/09/10 15:31:09;;;;;;;0.10;0.10;;;24.30;99.90;;;;;;4737064;30;20048;-77
2021/09/10 15:33:35;;;;;;;0.10;0.10;;;24.30;99.90;;;;;;4754278;30;20044;-76
2021/09/10 15:36:01;;;;;;;0.20;0.20;;;24.10;99.90;;;;;;4740679;30;20098;-76
2021/09/10 15:38:27;;;;;;;0.10;0.10;;;23.70;99.90;;;;;;4757152;30;20110;-76
2021/09/10 15:40:53;;;;;;;0.10;0.10;;;24.00;99.90;;;;;;4755435;30;20040;-76
2021/09/10 15:43:19;;;;;;;0.20;0.20;;;24.10;99.90;;;;;;4740703;30;20083;-76
2021/09/10 15:45:48;;;;;;;0.10;0.10;;;24.00;99.90;;;;;;4756500;30;20084;-75
2021/09/10 15:48:14;;;;;;;0.13;0.13;;;24.10;99.90;;;;;;4755174;30;20139;-76
2021/09/10 15:50:39;;;;;;;0.10;0.10;;;24.00;99.90;;;;;;4756213;30;20082;-75
2021/09/10 15:53:06;;;;;;;0.10;0.10;;;24.10;99.90;;;;;;4740499;30;20079;-75
2021/09/10 15:55:35;;;;;;;0.10;0.10;;;24.10;99.90;;;;;;4755279;30;20044;-75
2021/09/10 15:58:03;;;;;;;1.08;0.30;;;24.00;99.90;;;;;;4756487;30;20097;-75
2021/09/10 16:00:29;;;;;;;0.10;0.10;;;23.80;99.90;;;;;;4756108;30;20070;-75
2021/09/10 16:02:55;;;;;;;0.10;0.10;;;23.80;99.90;;;;;;4756386;30;20079;-75
2021/09/10 16:05:24;;;;;;;0.10;0.10;;;23.70;99.90;;;;;;4740361;30;20493;-75
2021/09/10 16:07:51;;;;;;;0.10;0.10;;;23.40;99.90;;;;;;4740150;30;20044;-75
2021/09/10 16:10:17;;;;;;;0.10;0.10;;;23.50;99.90;;;;;;4756296;30;20044;-75
2021/09/10 16:12:43;;;;;;;0.10;0.10;;;23.60;99.90;;;;;;4756171;30;20055;-75
2021/09/10 16:15:09;;;;;;;0.25;0.25;;;23.50;99.90;;;;;;4756034;30;20059;-76
2021/09/10 16:17:35;;;;;;;0.20;0.20;;;23.80;99.90;;;;;;4740226;30;20048;-76
2021/09/10 16:20:01;;;;;;;0.10;0.10;;;23.70;99.90;;;;;;4755975;30;20055;-76
2021/09/10 16:22:27;;;;;;;0.10;0.10;;;23.70;99.90;;;;;;4739945;30;20043;-76
2021/09/10 16:24:53;;;;;;;0.10;0.10;;;23.80;99.90;;;;;;4740254;30;20178;-76
2021/09/10 16:27:19;;;;;;;0.20;0.20;;;23.60;99.90;;;;;;4756005;30;20090;-76
2021/09/10 16:29:45;;;;;;;0.10;0.10;;;23.70;99.90;;;;;;4739322;30;20059;-76
2021/09/10 16:32:12;;;;;;;0.10;0.10;;;23.80;99.90;;;;;;4739652;30;20048;-76
2021/09/10 16:34:41;;;;;;;0.10;0.10;;;23.70;99.90;;;;;;4739582;30;20036;-76
2021/09/10 16:37:07;;;;;;;0.10;0.10;;;23.60;99.90;;;;;;4755751;30;20071;-76
2021/09/10 16:39:38;;;;;;;0.10;0.10;;;23.60;99.90;;;;;;4755666;30;20529;-81
2021/09/10 16:42:04;;;;;;;0.20;0.20;;;23.40;99.90;;;;;;4755388;30;20048;-75
2021/09/10 16:44:30;;;;;;;0.10;0.10;;;23.40;99.90;;;;;;4754420;30;20048;-76
2021/09/10 16:46:56;;;;;;;0.10;0.10;;;23.40;99.90;;;;;;4755280;30;20105;-76
2021/09/10 16:49:22;;;;;;;0.20;0.20;;;23.50;99.90;;;;;;4738904;30;20047;-75
2021/09/10 16:51:48;;;;;;;0.10;0.10;;;23.60;99.90;;;;;;4739389;30;20047;-75
2021/09/10 16:54:14;;;;;;;0.10;0.10;;;23.40;99.90;;;;;;4755414;30;20102;-75
2021/09/10 16:56:40;;;;;;;0.15;0.15;;;23.40;99.90;;;;;;4755350;30;20051;-75
2021/09/10 16:59:06;;;;;;;0.20;0.20;;;23.30;99.90;;;;;;4755103;30;20044;-75
2021/09/10 17:01:33;;;;;;;0.10;0.10;;;23.20;99.90;;;;;;4755025;30;20048;-75
2021/09/10 17:03:59;;;;;;;0.10;0.10;;;23.30;99.90;;;;;;4755364;30;20075;-75
2021/09/10 17:06:25;;;;;;;0.10;0.10;;;23.60;99.90;;;;;;4755064;30;20044;-75
2021/09/10 17:08:51;;;;;;;0.10;0.10;;;23.40;99.90;;;;;;4738848;30;20052;-75
2021/09/10 17:11:17;;;;;;;0.10;0.10;;;23.30;99.90;;;;;;4754974;30;20096;-75
2021/09/10 17:13:42;;;;;;;0.28;0.13;;;23.50;99.90;;;;;;4754962;30;20129;-75
2021/09/10 17:16:08;;;;;;;0.10;0.10;;;23.60;99.90;;;;;;4754718;30;20139;-75
2021/09/10 17:18:34;;;;;;;0.20;0.20;;;23.70;99.90;;;;;;4724239;30;20533;-75
2021/09/10 17:21:00;;;;;;;0.38;0.38;;;23.60;99.90;;;;;;4754821;30;20052;-75
2021/09/10 17:23:26;;;;;;;0.17;0.17;;;23.70;99.90;;;;;;4754735;30;20071;-75
2021/09/10 17:25:52;;;;;;;0.10;0.10;;;23.70;99.90;;;;;;4738808;30;20075;-75
2021/09/10 17:28:18;;;;;;;0.10;0.10;;;23.40;99.90;;;;;;4754882;30;20055;-75
2021/09/10 17:30:44;;;;;;;0.30;0.30;;;23.70;99.90;;;;;;4754348;30;20060;-75
2021/09/10 17:33:10;;;;;;;0.15;0.15;;;23.70;99.90;;;;;;4755169;30;20075;-76
2021/09/10 17:35:36;;;;;;;0.10;0.10;;;23.40;99.90;;;;;;4754296;30;20139;-76
2021/09/10 17:38:02;;;;;;;0.10;0.10;;;23.70;99.90;;;;;;4751453;30;20078;-76
2021/09/10 17:40:28;;;;;;;0.10;0.10;;;23.70;99.90;;;;;;4738422;30;20052;-76
2021/09/10 17:42:54;;;;;;;0.10;0.10;;;23.70;99.90;;;;;;4754906;30;20437;-76
2021/09/10 17:45:20;;;;;;;0.10;0.10;;;23.40;99.90;;;;;;4753318;30;20040;-76
2021/09/10 17:47:46;;;;;;;0.15;0.15;;;23.40;99.90;;;;;;4738515;30;20105;-76
2021/09/10 17:50:14;;;;;;;0.20;0.20;;;23.60;99.90;;;;;;4738644;30;20044;-76
2021/09/10 17:52:40;;;;;;;0.10;0.10;;;23.30;99.90;;;;;;4754555;30;20058;-76
2021/09/10 17:55:10;;;;;;;0.13;0.13;;;23.40;99.90;;;;;;4754224;30;20068;-76
2021/09/10 17:57:36;;;;;;;0.10;0.10;;;23.40;99.90;;;;;;4737809;30;20050;-76
2021/09/10 18:00:05;;;;;;;0.20;0.20;;;23.40;99.90;;;;;;4753641;30;20116;-76
2021/09/10 18:02:31;;;;;;;0.10;0.10;;;23.20;99.90;;;;;;4738364;30;20401;-76
2021/09/10 18:04:58;;;;;;;0.10;0.10;;;23.40;99.90;;;;;;4754339;30;20048;-76
2021/09/10 18:07:24;;;;;;;0.15;0.15;;;23.10;99.90;;;;;;4754278;30;20044;-76
2021/09/10 18:09:50;;;;;;;0.10;0.10;;;23.00;99.90;;;;;;4738005;30;20055;-76
2021/09/10 18:12:16;;;;;;;0.10;0.10;;;23.20;99.90;;;;;;4753891;30;20421;-76
2021/09/10 18:14:42;;;;;;;0.20;0.20;;;23.10;99.90;;;;;;4753997;30;20126;-76
2021/09/10 18:17:08;;;;;;;0.20;0.20;;;23.30;99.90;;;;;;4754139;30;20079;-76
2021/09/10 18:19:39;;;;;;;0.10;0.10;;;23.30;99.90;;;;;;4754103;30;20493;-75
2021/09/10 18:22:04;;;;;;;;;;;23.30;99.90;;;;;;4754358;30;20052;-76
2021/09/10 18:24:30;;;;;;;0.13;0.13;;;23.20;99.90;;;;;;4738066;30;20317;-77
2021/09/10 18:27:03;;;;;;;0.10;0.10;;;23.20;99.90;;;;;;4737493;30;20060;-78
2021/09/10 18:29:42;;;;;;;;;;;;;;;;;;;;;
2021/09/10 18:32:15;;;;;;;0.17;0.17;;;23.10;99.90;;;;;;4753796;30;20039;-79
2021/09/10 18:34:44;;;;;;;0.17;0.17;;;23.10;99.90;;;;;;4753928;30;20048;-78
2021/09/10 18:37:14;;;;;;;0.20;0.20;;;22.90;99.90;;;;;;4738239;30;20501;-79
2021/09/10 18:39:46;;;;;;;0.10;0.10;;;22.70;99.90;;;;;;4738004;30;20528;-78
2021/09/10 18:42:15;;;;;;;0.30;0.20;;;22.60;99.90;;;;;;4737008;30;20122;-79
2021/09/10 18:44:48;;;;;;;0.10;0.10;;;23.00;99.90;;;;;;4738306;30;20389;-79
2021/09/10 18:47:16;;;;;;;0.20;0.20;;;22.60;99.90;;;;;;4737796;30;20066;-79
2021/09/10 18:49:45;;;;;;;0.28;0.28;;;22.80;99.90;;;;;;4737814;30;20048;-79
2021/09/10 18:52:16;;;;;;;0.50;0.50;;;22.40;99.90;;;;;;4752709;30;20071;-79
2021/09/10 18:54:51;;;;;;;0.10;0.10;;;22.30;99.90;;;;;;4752185;30;20052;-79
2021/09/10 18:57:17;;;;;;;0.10;0.10;;;22.40;99.90;;;;;;4737330;30;20055;-76
2021/09/10 18:59:43;;;;;;;0.22;0.22;;;22.10;99.90;;;;;;4753602;30;20044;-76
2021/09/10 19:02:34;;;;;;;0.10;0.10;;;22.10;99.90;;;;;;4752639;30;20044;-76
2021/09/10 19:05:00;;;;;;;0.30;0.30;;;22.00;99.90;;;;;;4740247;30;20082;-75
2021/09/10 19:11:08;;;;;;;;;;;;;;;;;;;;;
2021/09/10 19:17:20;;;;;;;0.35;0.35;;;22.10;99.90;;;;;;4758038;30;20438;-81
2021/09/10 19:23:09;;;;;;;0.13;0.13;;;21.90;99.90;;;;;;4734244;30;20076;-81
2021/09/10 19:26:03;;;;;;;;;;;;;;;;;;;;;
2021/09/10 19:32:14;;;;;;;0.10;0.10;;;21.80;99.90;;;;;;4761451;30;20404;-81
2021/09/10 19:34:40;;;;;;;0.20;0.20;;;21.90;99.90;;;;;;4759335;30;20107;-80
2021/09/10 19:48:38;;;;;;;0.10;0.10;;;21.70;99.90;;;;;;4698393;30;20072;-81
2021/09/10 20:08:29;;;;;;;;;;;21.80;99.90;;;;;;4680327;30;20652;-79
2021/09/10 20:15:02;;;;;;;0.10;0.10;;;21.70;99.90;;;;;;4669317;30;20075;-81
2021/09/10 20:17:44;;;;;;;0.10;0.10;;;21.70;99.90;;;;;;4695253;30;20076;-80
2021/09/10 20:20:25;;;;;;;0.20;0.20;;;21.90;99.90;;;;;;4755062;30;20044;-79
2021/09/10 20:30:30;;;;;;;0.20;0.20;;;21.90;99.90;;;;;;4761267;30;20090;-80
2021/09/10 20:32:59;;;;;;;0.17;0.17;;;21.80;99.90;;;;;;4744503;30;20054;-79
2021/09/10 20:35:25;;;;;;;0.10;0.10;;;21.80;99.90;;;;;;4745893;30;20051;-78
2021/09/10 20:37:51;;;;;;;0.17;0.13;;;21.60;99.90;;;;;;4760223;30;20040;-78
2021/09/10 20:40:20;;;;;;;0.17;0.17;;;21.90;99.90;;;;;;4754499;30;20497;-79
2021/09/10 20:43:29;;;;;;;0.10;0.10;;;21.80;99.90;;;;;;4773843;30;20040;-79
2021/09/10 20:46:10;;;;;;;0.10;0.10;;;21.70;99.90;;;;;;4734373;30;20048;-79
2021/09/10 20:49:31;;;;;;;;;;;;;;;;;;;;;
2021/09/10 20:52:35;;;;;;;0.43;0.43;;;21.50;99.90;;;;;;4757482;30;20047;-79
2021/09/10 20:55:01;;;;;;;0.20;0.20;;;21.50;99.90;;;;;;4752014;30;20036;-79
2021/09/10 20:57:27;;;;;;;0.10;0.10;;;21.30;99.90;;;;;;4751410;30;20102;-78
2021/09/10 21:00:25;;;;;;;0.10;0.10;;;21.40;99.90;;;;;;4736643;30;20587;-79
2021/09/10 21:03:03;;;;;;;0.10;0.10;;;21.30;99.90;;;;;;4751041;30;20040;-79
2021/09/10 21:16:08;;;;;;;;;;;21.10;99.90;;;;;;4742493;30;20106;-78
2021/09/10 21:18:39;;;;;;;0.13;0.13;;;21.10;99.90;;;;;;4736983;30;19914;-78
2021/09/10 21:24:20;;;;;;;0.25;0.25;;;20.90;99.90;;;;;;4744141;30;20052;-79
2021/09/10 21:26:45;;;;;;;0.10;0.10;;;20.90;99.90;;;;;;4751225;30;20044;-79